sensor_id;sensor_type;location;lat;lon;timestamp;pressure;altitude;pressure_sealevel;temperature;humidity
6144;BME280;3103;49.492;8.474;2023-08-06T00:01:47;99666.00;;;18.98;82.45
6144;BME280;3103;49.492;8.474;2023-08-06T00:04:14;99659.75;;;18.97;82.60
6144;BME280;3103;49.492;8.474;2023-08-06T00:06:41;99644.97;;;18.81;82.81
6144;BME280;3103;49.492;8.474;2023-08-06T00:09:08;99646.34;;;19.01;82.21
6144;BME280;3103;49.492;8.474;2023-08-06T00:11:35;99639.84;;;19.19;80.45
6144;BME280;3103;49.492;8.474;2023-08-06T00:14:02;99635.91;;;18.94;81.02
6144;BME280;3103;49.492;8.474;2023-08-06T00:16:28;99636.91;;;19.07;81.05
6144;BME280;3103;49.492;8.474;2023-08-06T00:18:55;99634.19;;;19.07;80.58
6144;BME280;3103;49.492;8.474;2023-08-06T00:21:22;99635.25;;;18.97;80.12
6144;BME280;3103;49.492;8.474;2023-08-06T00:23:49;99628.38;;;19.00;79.81
6144;BME280;3103;49.492;8.474;2023-08-06T00:26:15;99619.13;;;19.01;79.83
6144;BME280;3103;49.492;8.474;2023-08-06T00:28:43;99623.13;;;19.04;79.75
6144;BME280;3103;49.492;8.474;2023-08-06T00:31:09;99618.50;;;19.04;79.34
6144;BME280;3103;49.492;8.474;2023-08-06T00:33:37;99613.53;;;19.06;78.51
6144;BME280;3103;49.492;8.474;2023-08-06T00:36:04;99614.34;;;19.07;77.92
6144;BME280;3103;49.492;8.474;2023-08-06T00:38:30;99609.94;;;18.88;79.39
6144;BME280;3103;49.492;8.474;2023-08-06T00:40:57;99601.56;;;19.16;77.36
6144;BME280;3103;49.492;8.474;2023-08-06T00:43:24;99605.31;;;18.97;77.96
6144;BME280;3103;49.492;8.474;2023-08-06T00:45:51;99598.44;;;19.00;77.53
6144;BME280;3103;49.492;8.474;2023-08-06T00:48:19;99594.59;;;18.92;77.76
6144;BME280;3103;49.492;8.474;2023-08-06T00:50:46;99598.75;;;18.90;77.87
6144;BME280;3103;49.492;8.474;2023-08-06T00:53:13;99590.47;;;19.04;76.65
6144;BME280;3103;49.492;8.474;2023-08-06T00:55:41;99585.34;;;19.02;76.16
6144;BME280;3103;49.492;8.474;2023-08-06T00:58:12;99590.59;;;18.98;76.22
6144;BME280;3103;49.492;8.474;2023-08-06T01:00:39;99588.38;;;19.01;75.63
6144;BME280;3103;49.492;8.474;2023-08-06T01:03:06;99588.50;;;18.87;75.70
6144;BME280;3103;49.492;8.474;2023-08-06T01:05:33;99580.69;;;19.03;74.98
6144;BME280;3103;49.492;8.474;2023-08-06T01:10:48;99576.84;;;19.04;74.94
6144;BME280;3103;49.492;8.474;2023-08-06T01:13:31;99568.50;;;19.00;75.48
6144;BME280;3103;49.492;8.474;2023-08-06T01:16:01;99559.69;;;18.94;75.97
6144;BME280;3103;49.492;8.474;2023-08-06T01:18:28;99554.84;;;18.83;75.70
6144;BME280;3103;49.492;8.474;2023-08-06T01:20:57;99556.34;;;18.97;75.34
6144;BME280;3103;49.492;8.474;2023-08-06T01:23:24;99559.16;;;18.84;75.83
6144;BME280;3103;49.492;8.474;2023-08-06T01:25:56;99564.66;;;18.92;75.70
6144;BME280;3103;49.492;8.474;2023-08-06T01:28:36;99555.44;;;18.71;76.66
6144;BME280;3103;49.492;8.474;2023-08-06T01:31:08;99554.84;;;18.83;75.94
6144;BME280;3103;49.492;8.474;2023-08-06T01:33:40;99555.47;;;18.80;76.61
6144;BME280;3103;49.492;8.474;2023-08-06T01:36:10;99555.81;;;18.78;76.24
6144;BME280;3103;49.492;8.474;2023-08-06T01:38:37;99542.84;;;18.75;76.01
6144;BME280;3103;49.492;8.474;2023-08-06T01:41:04;99547.00;;;18.81;76.36
6144;BME280;3103;49.492;8.474;2023-08-06T01:43:31;99549.88;;;18.76;75.50
6144;BME280;3103;49.492;8.474;2023-08-06T01:45:57;99551.63;;;18.81;74.62
6144;BME280;3103;49.492;8.474;2023-08-06T01:48:24;99552.72;;;18.71;74.69
6144;BME280;3103;49.492;8.474;2023-08-06T01:50:51;99552.81;;;18.88;73.75
6144;BME280;3103;49.492;8.474;2023-08-06T01:53:18;99546.88;;;18.86;73.26
6144;BME280;3103;49.492;8.474;2023-08-06T01:55:49;99553.63;;;19.06;72.23
6144;BME280;3103;49.492;8.474;2023-08-06T01:58:16;99552.03;;;19.14;71.89
6144;BME280;3103;49.492;8.474;2023-08-06T02:00:43;99550.94;;;19.15;70.90
6144;BME280;3103;49.492;8.474;2023-08-06T02:03:10;99551.53;;;18.94;71.86
6144;BME280;3103;49.492;8.474;2023-08-06T02:05:37;99554.25;;;18.94;72.04
6144;BME280;3103;49.492;8.474;2023-08-06T02:08:06;99549.75;;;18.90;72.68
6144;BME280;3103;49.492;8.474;2023-08-06T02:10:33;99551.06;;;18.61;73.53
6144;BME280;3103;49.492;8.474;2023-08-06T02:13:00;99558.16;;;18.71;73.04
6144;BME280;3103;49.492;8.474;2023-08-06T02:15:28;99548.13;;;18.80;72.39
6144;BME280;3103;49.492;8.474;2023-08-06T02:17:55;99554.84;;;18.74;72.70
6144;BME280;3103;49.492;8.474;2023-08-06T02:20:42;99546.00;;;18.37;74.21
6144;BME280;3103;49.492;8.474;2023-08-06T02:23:09;99542.94;;;18.70;73.30
6144;BME280;3103;49.492;8.474;2023-08-06T02:25:37;99539.28;;;18.66;73.43
6144;BME280;3103;49.492;8.474;2023-08-06T02:28:03;99536.22;;;18.67;73.31
6144;BME280;3103;49.492;8.474;2023-08-06T02:30:30;99528.19;;;18.62;73.82
6144;BME280;3103;49.492;8.474;2023-08-06T02:32:58;99525.47;;;18.62;73.65
6144;BME280;3103;49.492;8.474;2023-08-06T02:35:27;99523.44;;;18.68;73.20
6144;BME280;3103;49.492;8.474;2023-08-06T02:37:53;99522.88;;;18.57;73.96
6144;BME280;3103;49.492;8.474;2023-08-06T02:40:21;99521.88;;;18.45;74.65
6144;BME280;3103;49.492;8.474;2023-08-06T02:42:49;99517.06;;;18.42;74.77
6144;BME280;3103;49.492;8.474;2023-08-06T02:45:15;99516.06;;;18.37;74.94
6144;BME280;3103;49.492;8.474;2023-08-06T02:47:42;99513.03;;;18.30;76.02
6144;BME280;3103;49.492;8.474;2023-08-06T02:50:09;99517.03;;;18.33;75.95
6144;BME280;3103;49.492;8.474;2023-08-06T02:52:36;99514.44;;;18.28;76.48
6144;BME280;3103;49.492;8.474;2023-08-06T02:55:06;99516.34;;;18.27;76.19
6144;BME280;3103;49.492;8.474;2023-08-06T02:57:36;99512.00;;;18.18;77.11
6144;BME280;3103;49.492;8.474;2023-08-06T03:00:03;99506.09;;;18.24;76.99
6144;BME280;3103;49.492;8.474;2023-08-06T03:02:31;99515.53;;;18.27;76.86
6144;BME280;3103;49.492;8.474;2023-08-06T03:05:04;99512.56;;;18.37;76.23
6144;BME280;3103;49.492;8.474;2023-08-06T03:07:36;99511.38;;;18.21;76.91
6144;BME280;3103;49.492;8.474;2023-08-06T03:10:13;99504.31;;;18.20;77.37
6144;BME280;3103;49.492;8.474;2023-08-06T03:12:41;99503.13;;;18.03;77.89
6144;BME280;3103;49.492;8.474;2023-08-06T03:15:09;99501.31;;;17.99;78.54
6144;BME280;3103;49.492;8.474;2023-08-06T03:17:36;99504.72;;;18.04;78.46
6144;BME280;3103;49.492;8.474;2023-08-06T03:20:05;99498.44;;;17.95;79.00
6144;BME280;3103;49.492;8.474;2023-08-06T03:22:33;99499.78;;;18.06;78.29
6144;BME280;3103;49.492;8.474;2023-08-06T03:25:00;99497.63;;;17.95;78.82
6144;BME280;3103;49.492;8.474;2023-08-06T03:27:30;99500.59;;;17.85;nan
6144;BME280;3103;49.492;8.474;2023-08-06T03:29:57;99487.50;;;17.87;79.73
6144;BME280;3103;49.492;8.474;2023-08-06T03:32:28;99493.94;;;17.91;79.34
6144;BME280;3103;49.492;8.474;2023-08-06T03:34:55;99492.66;;;17.88;79.49
6144;BME280;3103;49.492;8.474;2023-08-06T03:37:25;99490.59;;;17.94;79.46
6144;BME280;3103;49.492;8.474;2023-08-06T03:39:52;99491.06;;;17.96;79.51
6144;BME280;3103;49.492;8.474;2023-08-06T03:42:20;99494.09;;;18.25;77.39
6144;BME280;3103;49.492;8.474;2023-08-06T03:44:47;99491.13;;;18.04;78.64
6144;BME280;3103;49.492;8.474;2023-08-06T03:47:14;99493.94;;;18.22;77.97
6144;BME280;3103;49.492;8.474;2023-08-06T03:49:41;99489.44;;;18.17;77.49
6144;BME280;3103;49.492;8.474;2023-08-06T03:52:08;99491.84;;;18.19;77.43
6144;BME280;3103;49.492;8.474;2023-08-06T03:54:35;99496.44;;;18.09;77.57
6144;BME280;3103;49.492;8.474;2023-08-06T03:57:02;99495.28;;;18.02;77.49
6144;BME280;3103;49.492;8.474;2023-08-06T03:59:29;99489.34;;;18.00;77.80
6144;BME280;3103;49.492;8.474;2023-08-06T04:01:56;99496.69;;;17.99;78.01
6144;BME280;3103;49.492;8.474;2023-08-06T04:04:23;99492.09;;;18.08;77.44
6144;BME280;3103;49.492;8.474;2023-08-06T04:06:50;99496.47;;;18.18;77.57
6144;BME280;3103;49.492;8.474;2023-08-06T04:09:17;99489.56;;;18.12;77.94
6144;BME280;3103;49.492;8.474;2023-08-06T04:11:43;99501.00;;;18.00;78.81
6144;BME280;3103;49.492;8.474;2023-08-06T04:14:10;99495.63;;;18.09;78.78
6144;BME280;3103;49.492;8.474;2023-08-06T04:16:37;99488.91;;;18.06;79.10
6144;BME280;3103;49.492;8.474;2023-08-06T04:19:04;99490.03;;;18.05;78.97
6144;BME280;3103;49.492;8.474;2023-08-06T04:21:30;99495.56;;;18.00;79.70
6144;BME280;3103;49.492;8.474;2023-08-06T04:23:57;99489.72;;;18.07;79.10
6144;BME280;3103;49.492;8.474;2023-08-06T04:26:24;99500.09;;;18.05;79.80
6144;BME280;3103;49.492;8.474;2023-08-06T04:28:51;99486.09;;;17.89;80.04
6144;BME280;3103;49.492;8.474;2023-08-06T04:31:19;99483.06;;;17.68;81.83
6144;BME280;3103;49.492;8.474;2023-08-06T04:33:45;99483.25;;;17.72;82.15
6144;BME280;3103;49.492;8.474;2023-08-06T04:36:14;99492.03;;;17.91;80.95
6144;BME280;3103;49.492;8.474;2023-08-06T04:38:41;99494.25;;;17.89;80.92
6144;BME280;3103;49.492;8.474;2023-08-06T04:41:13;99481.19;;;18.00;80.17
6144;BME280;3103;49.492;8.474;2023-08-06T04:43:40;99489.19;;;17.74;81.58
6144;BME280;3103;49.492;8.474;2023-08-06T04:46:07;99490.97;;;17.78;81.14
6144;BME280;3103;49.492;8.474;2023-08-06T04:48:34;99485.66;;;17.73;81.31
6144;BME280;3103;49.492;8.474;2023-08-06T04:51:00;99492.13;;;17.64;81.86
6144;BME280;3103;49.492;8.474;2023-08-06T04:53:27;99490.66;;;17.80;81.28
6144;BME280;3103;49.492;8.474;2023-08-06T04:55:54;99483.81;;;17.83;81.06
6144;BME280;3103;49.492;8.474;2023-08-06T04:58:21;99491.28;;;17.77;80.68
6144;BME280;3103;49.492;8.474;2023-08-06T05:00:48;99498.00;;;17.79;80.37
6144;BME280;3103;49.492;8.474;2023-08-06T05:03:18;99489.38;;;17.77;80.68
6144;BME280;3103;49.492;8.474;2023-08-06T05:05:46;99493.88;;;17.82;80.39
6144;BME280;3103;49.492;8.474;2023-08-06T05:08:15;99493.00;;;17.95;79.13
6144;BME280;3103;49.492;8.474;2023-08-06T05:10:44;99492.81;;;17.92;79.19
6144;BME280;3103;49.492;8.474;2023-08-06T05:13:11;99494.56;;;17.88;79.74
6144;BME280;3103;49.492;8.474;2023-08-06T05:15:39;99495.72;;;17.73;81.21
6144;BME280;3103;49.492;8.474;2023-08-06T05:18:09;99490.63;;;17.58;82.10
6144;BME280;3103;49.492;8.474;2023-08-06T05:20:36;99499.84;;;17.70;81.28
6144;BME280;3103;49.492;8.474;2023-08-06T05:23:04;99496.00;;;17.49;81.99
6144;BME280;3103;49.492;8.474;2023-08-06T05:25:31;99489.59;;;17.67;80.49
6144;BME280;3103;49.492;8.474;2023-08-06T05:27:58;99490.00;;;17.74;81.19
6144;BME280;3103;49.492;8.474;2023-08-06T05:30:25;99489.34;;;17.55;82.30
6144;BME280;3103;49.492;8.474;2023-08-06T05:32:51;99495.25;;;17.57;82.44
6144;BME280;3103;49.492;8.474;2023-08-06T05:35:18;99496.34;;;17.70;81.99
6144;BME280;3103;49.492;8.474;2023-08-06T05:37:45;99503.16;;;17.67;81.45
6144;BME280;3103;49.492;8.474;2023-08-06T05:40:12;99497.44;;;17.69;81.58
6144;BME280;3103;49.492;8.474;2023-08-06T05:42:40;99493.53;;;17.75;81.44
6144;BME280;3103;49.492;8.474;2023-08-06T05:45:07;99500.16;;;17.46;82.47
6144;BME280;3103;49.492;8.474;2023-08-06T05:47:34;99501.34;;;17.40;83.95
6144;BME280;3103;49.492;8.474;2023-08-06T05:50:01;99504.97;;;17.49;82.80
6144;BME280;3103;49.492;8.474;2023-08-06T05:52:29;99512.31;;;17.49;83.17
6144;BME280;3103;49.492;8.474;2023-08-06T05:54:56;99508.34;;;17.33;84.15
6144;BME280;3103;49.492;8.474;2023-08-06T05:57:23;99507.91;;;17.39;84.10
6144;BME280;3103;49.492;8.474;2023-08-06T05:59:50;99516.16;;;17.34;85.10
6144;BME280;3103;49.492;8.474;2023-08-06T06:02:17;99516.34;;;17.38;84.98
6144;BME280;3103;49.492;8.474;2023-08-06T06:04:45;99509.94;;;17.34;84.92
6144;BME280;3103;49.492;8.474;2023-08-06T06:07:12;99519.75;;;17.43;84.97
6144;BME280;3103;49.492;8.474;2023-08-06T06:09:38;99517.16;;;17.38;85.49
6144;BME280;3103;49.492;8.474;2023-08-06T06:12:06;99523.13;;;17.27;86.37
6144;BME280;3103;49.492;8.474;2023-08-06T06:14:33;99513.91;;;17.14;87.14
6144;BME280;3103;49.492;8.474;2023-08-06T06:17:00;99519.78;;;17.30;86.69
6144;BME280;3103;49.492;8.474;2023-08-06T06:19:27;99520.19;;;17.37;85.79
6144;BME280;3103;49.492;8.474;2023-08-06T06:21:55;99517.03;;;17.43;85.06
6144;BME280;3103;49.492;8.474;2023-08-06T06:24:24;99523.91;;;17.27;85.67
6144;BME280;3103;49.492;8.474;2023-08-06T06:26:51;99515.69;;;17.32;86.05
6144;BME280;3103;49.492;8.474;2023-08-06T06:29:18;99517.25;;;17.47;84.64
6144;BME280;3103;49.492;8.474;2023-08-06T06:31:45;99521.66;;;17.43;84.93
6144;BME280;3103;49.492;8.474;2023-08-06T06:34:12;99522.09;;;17.36;85.90
6144;BME280;3103;49.492;8.474;2023-08-06T06:36:38;99524.28;;;17.48;84.86
6144;BME280;3103;49.492;8.474;2023-08-06T06:39:05;99531.03;;;17.37;85.51
6144;BME280;3103;49.492;8.474;2023-08-06T06:41:32;99531.41;;;17.44;85.67
6144;BME280;3103;49.492;8.474;2023-08-06T06:44:08;99526.94;;;17.26;87.08
6144;BME280;3103;49.492;8.474;2023-08-06T06:46:35;99525.91;;;17.35;86.23
6144;BME280;3103;49.492;8.474;2023-08-06T06:49:01;99536.84;;;17.44;85.96
6144;BME280;3103;49.492;8.474;2023-08-06T06:51:28;99525.38;;;17.47;85.75
6144;BME280;3103;49.492;8.474;2023-08-06T06:53:55;99527.84;;;17.35;86.86
6144;BME280;3103;49.492;8.474;2023-08-06T06:56:22;99528.44;;;17.32;87.12
6144;BME280;3103;49.492;8.474;2023-08-06T06:58:48;99528.59;;;17.49;85.75
6144;BME280;3103;49.492;8.474;2023-08-06T07:01:15;99527.31;;;17.46;85.38
6144;BME280;3103;49.492;8.474;2023-08-06T07:03:42;99531.06;;;17.59;84.99
6144;BME280;3103;49.492;8.474;2023-08-06T07:06:09;99530.56;;;17.57;84.33
6144;BME280;3103;49.492;8.474;2023-08-06T07:08:36;99526.72;;;17.58;84.93
6144;BME280;3103;49.492;8.474;2023-08-06T07:11:03;99531.00;;;17.50;85.21
6144;BME280;3103;49.492;8.474;2023-08-06T07:13:32;99526.31;;;17.65;84.80
6144;BME280;3103;49.492;8.474;2023-08-06T07:15:59;99516.38;;;17.60;84.57
6144;BME280;3103;49.492;8.474;2023-08-06T07:18:26;99525.13;;;17.57;85.04
6144;BME280;3103;49.492;8.474;2023-08-06T07:20:54;99523.13;;;17.63;84.84
6144;BME280;3103;49.492;8.474;2023-08-06T07:23:23;99518.88;;;17.70;84.51
6144;BME280;3103;49.492;8.474;2023-08-06T07:25:50;99520.06;;;17.78;83.97
6144;BME280;3103;49.492;8.474;2023-08-06T07:28:17;99521.16;;;17.77;84.44
6144;BME280;3103;49.492;8.474;2023-08-06T07:30:45;99523.28;;;17.66;84.39
6144;BME280;3103;49.492;8.474;2023-08-06T07:33:12;99537.16;;;17.78;84.32
6144;BME280;3103;49.492;8.474;2023-08-06T07:35:39;99530.13;;;17.77;84.43
6144;BME280;3103;49.492;8.474;2023-08-06T07:38:06;99524.63;;;17.91;82.99
6144;BME280;3103;49.492;8.474;2023-08-06T07:40:35;99530.47;;;17.85;83.38
6144;BME280;3103;49.492;8.474;2023-08-06T07:43:02;99532.59;;;17.88;83.08
6144;BME280;3103;49.492;8.474;2023-08-06T07:45:33;99538.84;;;17.88;82.75
6144;BME280;3103;49.492;8.474;2023-08-06T07:48:00;99538.53;;;17.90;83.30
6144;BME280;3103;49.492;8.474;2023-08-06T07:50:27;99535.91;;;17.85;84.41
6144;BME280;3103;49.492;8.474;2023-08-06T07:52:54;99539.44;;;17.85;84.33
6144;BME280;3103;49.492;8.474;2023-08-06T07:55:21;99528.38;;;17.82;85.20
6144;BME280;3103;49.492;8.474;2023-08-06T07:57:48;99529.13;;;17.73;85.98
6144;BME280;3103;49.492;8.474;2023-08-06T08:00:15;99538.22;;;17.91;85.13
6144;BME280;3103;49.492;8.474;2023-08-06T08:02:42;99532.09;;;17.86;85.17
6144;BME280;3103;49.492;8.474;2023-08-06T08:05:09;99540.38;;;17.80;86.06
6144;BME280;3103;49.492;8.474;2023-08-06T08:07:35;99525.50;;;17.78;86.72
6144;BME280;3103;49.492;8.474;2023-08-06T08:10:02;99526.84;;;17.89;86.43
6144;BME280;3103;49.492;8.474;2023-08-06T08:12:32;99521.94;;;18.00;85.39
6144;BME280;3103;49.492;8.474;2023-08-06T08:14:59;99527.91;;;18.02;85.87
6144;BME280;3103;49.492;8.474;2023-08-06T08:17:26;99526.31;;;18.09;85.58
6144;BME280;3103;49.492;8.474;2023-08-06T08:19:53;99517.22;;;18.14;84.90
6144;BME280;3103;49.492;8.474;2023-08-06T08:22:19;99520.56;;;18.11;85.06
6144;BME280;3103;49.492;8.474;2023-08-06T08:24:46;99528.03;;;18.28;84.33
6144;BME280;3103;49.492;8.474;2023-08-06T08:27:13;99521.97;;;18.31;83.88
6144;BME280;3103;49.492;8.474;2023-08-06T08:29:40;99510.91;;;18.27;84.36
6144;BME280;3103;49.492;8.474;2023-08-06T08:32:07;99514.41;;;18.19;84.70
6144;BME280;3103;49.492;8.474;2023-08-06T08:34:34;99512.06;;;18.35;84.51
6144;BME280;3103;49.492;8.474;2023-08-06T08:37:01;99503.94;;;18.44;84.97
6144;BME280;3103;49.492;8.474;2023-08-06T08:39:27;99519.34;;;18.48;85.26
6144;BME280;3103;49.492;8.474;2023-08-06T08:41:54;99514.69;;;18.49;85.26
6144;BME280;3103;49.492;8.474;2023-08-06T08:44:21;99506.84;;;18.47;84.63
6144;BME280;3103;49.492;8.474;2023-08-06T08:46:48;99503.41;;;18.64;83.45
6144;BME280;3103;49.492;8.474;2023-08-06T08:49:16;99504.59;;;18.80;82.01
6144;BME280;3103;49.492;8.474;2023-08-06T08:51:44;99505.63;;;19.27;79.27
6144;BME280;3103;49.492;8.474;2023-08-06T08:54:13;99500.00;;;19.07;80.60
6144;BME280;3103;49.492;8.474;2023-08-06T08:56:40;99500.63;;;19.04;81.51
6144;BME280;3103;49.492;8.474;2023-08-06T08:59:07;99504.94;;;18.96;81.24
6144;BME280;3103;49.492;8.474;2023-08-06T09:01:34;99503.34;;;18.86;80.66
6144;BME280;3103;49.492;8.474;2023-08-06T09:04:01;99497.06;;;18.86;79.87
6144;BME280;3103;49.492;8.474;2023-08-06T09:06:30;99479.13;;;18.76;79.75
6144;BME280;3103;49.492;8.474;2023-08-06T09:09:01;99479.13;;;18.76;78.70
6144;BME280;3103;49.492;8.474;2023-08-06T09:11:37;99487.81;;;18.87;79.03
6144;BME280;3103;49.492;8.474;2023-08-06T09:14:07;99506.38;;;18.93;77.06
6144;BME280;3103;49.492;8.474;2023-08-06T09:16:37;99501.78;;;18.63;76.03
6144;BME280;3103;49.492;8.474;2023-08-06T09:19:08;99502.63;;;18.63;76.09
6144;BME280;3103;49.492;8.474;2023-08-06T09:21:42;99508.38;;;18.71;76.22
6144;BME280;3103;49.492;8.474;2023-08-06T09:24:13;99498.19;;;18.76;76.09
6144;BME280;3103;49.492;8.474;2023-08-06T09:26:41;99504.28;;;18.99;75.46
6144;BME280;3103;49.492;8.474;2023-08-06T09:29:09;99487.81;;;19.13;74.73
6144;BME280;3103;49.492;8.474;2023-08-06T09:31:41;99493.59;;;19.20;74.68
6144;BME280;3103;49.492;8.474;2023-08-06T09:34:14;99486.69;;;19.14;73.91
6144;BME280;3103;49.492;8.474;2023-08-06T09:36:43;99499.16;;;18.89;72.47
6144;BME280;3103;49.492;8.474;2023-08-06T09:39:13;99492.94;;;18.88;71.94
6144;BME280;3103;49.492;8.474;2023-08-06T09:41:42;99500.25;;;18.79;72.72
6144;BME280;3103;49.492;8.474;2023-08-06T09:44:16;99510.66;;;18.77;73.99
6144;BME280;3103;49.492;8.474;2023-08-06T09:46:52;99503.22;;;18.60;74.72
6144;BME280;3103;49.492;8.474;2023-08-06T09:49:21;99509.75;;;18.51;75.84
6144;BME280;3103;49.492;8.474;2023-08-06T09:51:51;99523.28;;;18.42;78.42
6144;BME280;3103;49.492;8.474;2023-08-06T09:54:19;99521.97;;;18.31;80.25
6144;BME280;3103;49.492;8.474;2023-08-06T09:56:54;99516.66;;;18.26;81.31
6144;BME280;3103;49.492;8.474;2023-08-06T09:59:25;99515.38;;;18.23;81.65
6144;BME280;3103;49.492;8.474;2023-08-06T10:01:53;99510.91;;;18.27;80.32
6144;BME280;3103;49.492;8.474;2023-08-06T10:04:21;99513.31;;;18.29;79.50
6144;BME280;3103;49.492;8.474;2023-08-06T10:06:52;99518.31;;;18.35;78.61
6144;BME280;3103;49.492;8.474;2023-08-06T10:09:19;99511.38;;;18.29;78.83
6144;BME280;3103;49.492;8.474;2023-08-06T10:11:50;99516.00;;;18.20;79.59
6144;BME280;3103;49.492;8.474;2023-08-06T10:14:23;99524.25;;;18.06;78.93
6144;BME280;3103;49.492;8.474;2023-08-06T10:16:51;99532.44;;;18.15;79.05
6144;BME280;3103;49.492;8.474;2023-08-06T10:19:18;99545.03;;;18.11;79.18
6144;BME280;3103;49.492;8.474;2023-08-06T10:22:14;99541.84;;;18.09;78.92
6144;BME280;3103;49.492;8.474;2023-08-06T10:24:53;99538.63;;;18.07;79.75
6144;BME280;3103;49.492;8.474;2023-08-06T10:30:26;99546.22;;;17.96;80.51
6144;BME280;3103;49.492;8.474;2023-08-06T10:33:03;99545.34;;;17.87;81.00
6144;BME280;3103;49.492;8.474;2023-08-06T10:38:10;99554.38;;;17.96;81.66
6144;BME280;3103;49.492;8.474;2023-08-06T10:40:39;99560.06;;;17.86;80.60
6144;BME280;3103;49.492;8.474;2023-08-06T10:43:06;99562.72;;;17.77;81.43
6144;BME280;3103;49.492;8.474;2023-08-06T10:45:36;99571.72;;;17.87;82.16
6144;BME280;3103;49.492;8.474;2023-08-06T10:48:04;99568.72;;;17.88;81.95
6144;BME280;3103;49.492;8.474;2023-08-06T10:50:31;99569.41;;;17.94;81.96
6144;BME280;3103;49.492;8.474;2023-08-06T10:53:04;99573.63;;;17.86;81.40
6144;BME280;3103;49.492;8.474;2023-08-06T10:55:34;99580.13;;;17.99;79.99
6144;BME280;3103;49.492;8.474;2023-08-06T10:58:01;99579.56;;;18.10;78.76
6144;BME280;3103;49.492;8.474;2023-08-06T11:00:28;99574.13;;;18.10;78.31
6144;BME280;3103;49.492;8.474;2023-08-06T11:02:55;99571.25;;;18.07;78.10
6144;BME280;3103;49.492;8.474;2023-08-06T11:05:22;99572.53;;;18.09;76.76
6144;BME280;3103;49.492;8.474;2023-08-06T11:07:48;99579.97;;;18.18;76.00
6144;BME280;3103;49.492;8.474;2023-08-06T11:10:16;99588.19;;;18.04;75.47
6144;BME280;3103;49.492;8.474;2023-08-06T11:12:43;99593.97;;;18.11;75.01
6144;BME280;3103;49.492;8.474;2023-08-06T11:15:10;99583.22;;;18.06;74.20
6144;BME280;3103;49.492;8.474;2023-08-06T11:17:40;99594.59;;;18.30;73.24
6144;BME280;3103;49.492;8.474;2023-08-06T11:20:08;99591.50;;;18.23;73.46
6144;BME280;3103;49.492;8.474;2023-08-06T11:22:36;99598.69;;;18.50;72.84
6144;BME280;3103;49.492;8.474;2023-08-06T11:25:04;99607.00;;;18.45;72.80
6144;BME280;3103;49.492;8.474;2023-08-06T11:27:32;99608.59;;;18.24;73.42
6144;BME280;3103;49.492;8.474;2023-08-06T11:29:59;99597.47;;;18.34;73.58
6144;BME280;3103;49.492;8.474;2023-08-06T11:32:26;99608.84;;;18.36;73.39
6144;BME280;3103;49.492;8.474;2023-08-06T11:34:54;99601.41;;;18.50;72.54
6144;BME280;3103;49.492;8.474;2023-08-06T11:37:22;99623.72;;;18.61;71.83
6144;BME280;3103;49.492;8.474;2023-08-06T11:39:51;99620.50;;;18.59;71.70
6144;BME280;3103;49.492;8.474;2023-08-06T11:42:19;99622.72;;;18.57;70.50
6144;BME280;3103;49.492;8.474;2023-08-06T11:44:46;99622.81;;;18.65;70.02
6144;BME280;3103;49.492;8.474;2023-08-06T11:47:17;99629.97;;;18.61;69.64
6144;BME280;3103;49.492;8.474;2023-08-06T11:49:47;99632.19;;;18.59;69.46
6144;BME280;3103;49.492;8.474;2023-08-06T11:52:23;99633.91;;;18.55;68.34
6144;BME280;3103;49.492;8.474;2023-08-06T11:55:08;99644.88;;;18.64;68.88
6144;BME280;3103;49.492;8.474;2023-08-06T11:57:39;99646.91;;;18.58;68.80
6144;BME280;3103;49.492;8.474;2023-08-06T12:00:12;99650.13;;;18.60;68.27
6144;BME280;3103;49.492;8.474;2023-08-06T12:02:43;99655.63;;;18.69;67.56
6144;BME280;3103;49.492;8.474;2023-08-06T12:05:13;99667.25;;;18.61;66.41
6144;BME280;3103;49.492;8.474;2023-08-06T12:07:46;99675.34;;;18.75;65.91
6144;BME280;3103;49.492;8.474;2023-08-06T12:10:14;99676.59;;;18.68;65.60
6144;BME280;3103;49.492;8.474;2023-08-06T12:12:42;99679.13;;;18.65;65.72
6144;BME280;3103;49.492;8.474;2023-08-06T12:15:10;99687.19;;;18.56;65.63
6144;BME280;3103;49.492;8.474;2023-08-06T12:17:37;99677.44;;;18.55;66.20
6144;BME280;3103;49.492;8.474;2023-08-06T12:20:06;99690.13;;;18.60;66.63
6144;BME280;3103;49.492;8.474;2023-08-06T12:22:34;99689.44;;;18.54;66.08
6144;BME280;3103;49.492;8.474;2023-08-06T12:25:06;99697.53;;;18.46;65.43
6144;BME280;3103;49.492;8.474;2023-08-06T12:27:39;99679.84;;;18.57;65.28
6144;BME280;3103;49.492;8.474;2023-08-06T12:30:09;99702.84;;;18.51;65.80
6144;BME280;3103;49.492;8.474;2023-08-06T12:32:38;99695.34;;;18.56;65.28
6144;BME280;3103;49.492;8.474;2023-08-06T12:35:06;99704.53;;;18.60;65.44
6144;BME280;3103;49.492;8.474;2023-08-06T12:37:34;99703.84;;;18.55;65.35
6144;BME280;3103;49.492;8.474;2023-08-06T12:40:02;99717.88;;;18.48;65.66
6144;BME280;3103;49.492;8.474;2023-08-06T12:42:50;99707.34;;;18.55;64.44
6144;BME280;3103;49.492;8.474;2023-08-06T12:45:17;99711.50;;;18.53;64.18
6144;BME280;3103;49.492;8.474;2023-08-06T12:47:47;99718.34;;;18.64;64.30
6144;BME280;3103;49.492;8.474;2023-08-06T12:50:15;99723.53;;;18.74;64.87
6144;BME280;3103;49.492;8.474;2023-08-06T12:52:43;99724.88;;;18.63;66.28
6144;BME280;3103;49.492;8.474;2023-08-06T12:55:10;99727.59;;;18.63;67.18
6144;BME280;3103;49.492;8.474;2023-08-06T12:57:37;99723.47;;;18.65;67.16
6144;BME280;3103;49.492;8.474;2023-08-06T13:00:24;99735.56;;;18.59;67.51
6144;BME280;3103;49.492;8.474;2023-08-06T13:02:51;99737.47;;;18.36;68.01
6144;BME280;3103;49.492;8.474;2023-08-06T13:05:18;99756.19;;;18.38;67.05
6144;BME280;3103;49.492;8.474;2023-08-06T13:07:47;99748.66;;;18.35;68.23
6144;BME280;3103;49.492;8.474;2023-08-06T13:10:14;99756.09;;;18.29;67.22
6144;BME280;3103;49.492;8.474;2023-08-06T13:12:41;99762.13;;;18.40;67.49
6144;BME280;3103;49.492;8.474;2023-08-06T13:15:08;99768.84;;;18.43;66.81
6144;BME280;3103;49.492;8.474;2023-08-06T13:17:35;99768.56;;;18.44;66.73
6144;BME280;3103;49.492;8.474;2023-08-06T13:20:02;99770.97;;;18.46;66.06
6144;BME280;3103;49.492;8.474;2023-08-06T13:22:29;99775.50;;;18.50;66.23
6144;BME280;3103;49.492;8.474;2023-08-06T13:24:56;99774.69;;;18.50;66.35
6144;BME280;3103;49.492;8.474;2023-08-06T13:27:23;99771.84;;;18.55;66.38
6144;BME280;3103;49.492;8.474;2023-08-06T13:29:50;99781.97;;;18.40;65.85
6144;BME280;3103;49.492;8.474;2023-08-06T13:32:17;99781.06;;;18.45;66.31
6144;BME280;3103;49.492;8.474;2023-08-06T13:34:44;99790.03;;;18.46;66.11
6144;BME280;3103;49.492;8.474;2023-08-06T13:37:10;99782.97;;;18.45;66.27